Time;durP1;ratioP1;P1;durP2;ratioP2;P2;SDS_P1;SDS_P2;PMS_P1;PMS_P2;Temp;Humidity;BMP_temperature;BMP_pressure;BME280_temperature;BME280_humidity;BME280_pressure;Samples;Min_cycle;Max_cycle;Signal;HPM_P1;HPM_P2
2021/08/27 00:00:24;;;;;;;9.33;3.00;;;;;;;;;;5093758;28;20442;-77
2021/08/27 00:02:52;;;;;;;2.30;1.90;;;;;;;;;;5093882;28;20489;-77
2021/08/27 00:05:19;;;;;;;4.60;2.40;;;;;;;;;;5093360;28;20466;-76
2021/08/27 00:07:47;;;;;;;6.37;2.20;;;;;;;;;;5093705;28;20446;-77
2021/08/27 00:10:14;;;;;;;5.67;2.30;;;;;;;;;;5094371;28;20439;-77
2021/08/27 00:12:41;;;;;;;8.87;2.27;;;;;;;;;;5093938;28;20443;-77
2021/08/27 00:15:09;;;;;;;8.23;2.90;;;;;;;;;;5094395;28;20455;-78
2021/08/27 00:17:36;;;;;;;8.13;2.00;;;;;;;;;;5093638;28;20794;-77
2021/08/27 00:20:06;;;;;;;4.80;2.23;;;;;;;;;;5093593;28;20442;-78
2021/08/27 00:22:33;;;;;;;10.83;2.70;;;;;;;;;;5093417;28;20474;-78
2021/08/27 00:25:00;;;;;;;10.83;2.33;;;;;;;;;;5093103;28;20475;-78
2021/08/27 00:27:27;;;;;;;5.23;2.70;;;;;;;;;;5093492;28;20523;-78
2021/08/27 00:29:55;;;;;;;5.90;2.20;;;;;;;;;;5093499;28;20444;-78
2021/08/27 00:32:22;;;;;;;13.37;2.80;;;;;;;;;;5093598;28;20448;-78
2021/08/27 00:34:49;;;;;;;4.77;2.77;;;;;;;;;;5093120;28;20439;-77
2021/08/27 00:37:17;;;;;;;15.10;2.63;;;;;;;;;;5093847;28;20445;-78
2021/08/27 00:39:45;;;;;;;8.20;2.20;;;;;;;;;;5093372;28;20450;-78
2021/08/27 00:42:12;;;;;;;9.50;2.40;;;;;;;;;;5093916;28;20452;-78
2021/08/27 00:44:39;;;;;;;6.93;2.97;;;;;;;;;;5093245;28;20479;-78
2021/08/27 00:47:06;;;;;;;8.40;2.83;;;;;;;;;;5093297;28;20446;-77
2021/08/27 00:49:34;;;;;;;12.43;2.60;;;;;;;;;;5093381;28;20466;-77
2021/08/27 00:52:01;;;;;;;6.13;2.57;;;;;;;;;;5092969;28;20450;-77
2021/08/27 00:54:29;;;;;;;4.20;2.20;;;;;;;;;;5093457;28;20458;-77
2021/08/27 00:56:57;;;;;;;5.63;2.30;;;;;;;;;;5096890;28;20450;-77
2021/08/27 00:59:24;;;;;;;5.93;2.87;;;;;;;;;;5096813;28;21038;-77
2021/08/27 01:01:51;;;;;;;6.97;2.60;;;;;;;;;;5096750;28;20454;-77
2021/08/27 01:04:18;;;;;;;12.67;2.90;;;;;;;;;;5096537;28;20475;-77
2021/08/27 01:06:49;;;;;;;7.00;2.93;;;;;;;;;;5097703;28;20808;-80
2021/08/27 01:09:22;;;;;;;9.80;2.90;;;;;;;;;;5097445;28;20424;-78
2021/08/27 01:11:54;;;;;;;12.87;2.37;;;;;;;;;;5096608;28;20428;-77
2021/08/27 01:14:24;;;;;;;8.80;2.70;;;;;;;;;;5097315;28;20440;-75
2021/08/27 01:16:54;;;;;;;4.80;2.57;;;;;;;;;;5097314;28;20427;-77
2021/08/27 01:19:32;;;;;;;7.90;3.20;;;;;;;;;;5097129;28;20485;-76
2021/08/27 01:22:11;;;;;;;5.50;2.63;;;;;;;;;;5096709;28;20834;-77
2021/08/27 01:24:38;;;;;;;10.80;2.60;;;;;;;;;;5096530;28;20474;-77
2021/08/27 01:27:10;;;;;;;4.13;2.37;;;;;;;;;;5096793;28;20447;-77
2021/08/27 01:29:54;;;;;;;7.17;2.10;;;;;;;;;;5096590;28;20433;-77
2021/08/27 01:32:24;;;;;;;4.93;2.27;;;;;;;;;;5095904;28;20940;-76
2021/08/27 01:34:54;;;;;;;4.57;2.23;;;;;;;;;;5096706;28;20435;-76
2021/08/27 01:37:23;;;;;;;8.40;2.50;;;;;;;;;;5096082;28;20448;-78
2021/08/27 01:39:51;;;;;;;6.00;2.20;;;;;;;;;;5096562;28;20444;-77
2021/08/27 01:42:20;;;;;;;9.00;2.80;;;;;;;;;;5095978;28;20442;-77
2021/08/27 01:44:48;;;;;;;11.30;2.90;;;;;;;;;;5096202;28;20476;-77
2021/08/27 01:47:17;;;;;;;8.73;2.23;;;;;;;;;;5096189;28;20443;-76
2021/08/27 01:49:45;;;;;;;12.80;3.00;;;;;;;;;;5095906;28;20944;-77
2021/08/27 01:52:14;;;;;;;8.03;2.47;;;;;;;;;;5096669;28;20455;-76
2021/08/27 01:54:42;;;;;;;5.40;2.47;;;;;;;;;;5096041;28;20443;-76
2021/08/27 01:57:10;;;;;;;7.90;3.50;;;;;;;;;;5096031;28;20522;-76
2021/08/27 01:59:39;;;;;;;8.47;2.90;;;;;;;;;;5096342;28;20438;-76
2021/08/27 02:02:07;;;;;;;6.83;3.23;;;;;;;;;;5095899;28;20761;-76
2021/08/27 02:04:34;;;;;;;7.83;2.80;;;;;;;;;;5095850;28;20494;-76
2021/08/27 02:07:03;;;;;;;10.23;2.30;;;;;;;;;;5096003;28;20803;-76
2021/08/27 02:09:31;;;;;;;5.80;2.60;;;;;;;;;;5095786;28;20455;-76
2021/08/27 02:11:58;;;;;;;9.40;2.73;;;;;;;;;;5095420;28;20443;-76
2021/08/27 02:14:26;;;;;;;2.60;2.10;;;;;;;;;;5095374;28;20960;-77
2021/08/27 02:16:53;;;;;;;7.00;2.90;;;;;;;;;;5095595;28;20450;-76
2021/08/27 02:19:20;;;;;;;7.67;3.17;;;;;;;;;;5095730;28;20933;-76
2021/08/27 02:21:50;;;;;;;5.70;2.90;;;;;;;;;;5095328;28;20447;-76
2021/08/27 02:24:19;;;;;;;3.77;2.00;;;;;;;;;;5095150;28;20432;-76
2021/08/27 02:26:48;;;;;;;6.93;2.50;;;;;;;;;;5095390;28;20531;-76
2021/08/27 02:29:17;;;;;;;6.67;3.43;;;;;;;;;;5095464;28;20444;-76
2021/08/27 02:31:45;;;;;;;11.60;2.20;;;;;;;;;;5095350;28;20792;-76
2021/08/27 02:34:14;;;;;;;6.40;2.57;;;;;;;;;;5095811;28;20473;-76
2021/08/27 02:36:41;;;;;;;6.00;2.50;;;;;;;;;;5095377;28;20444;-76
2021/08/27 02:39:09;;;;;;;4.17;2.73;;;;;;;;;;5095233;28;20436;-76
2021/08/27 02:41:38;;;;;;;6.20;2.50;;;;;;;;;;5095163;28;20435;-76
2021/08/27 02:44:06;;;;;;;4.50;2.20;;;;;;;;;;5094997;28;20459;-77
2021/08/27 02:46:34;;;;;;;4.03;2.30;;;;;;;;;;5094678;28;20481;-76
2021/08/27 02:49:02;;;;;;;10.87;3.10;;;;;;;;;;5095054;28;20446;-77
2021/08/27 02:51:34;;;;;;;7.57;2.67;;;;;;;;;;5095128;28;20518;-77
2021/08/27 02:54:03;;;;;;;6.50;3.30;;;;;;;;;;5095341;28;20438;-77
2021/08/27 02:56:33;;;;;;;7.10;2.50;;;;;;;;;;5094863;28;20528;-78
2021/08/27 02:59:01;;;;;;;7.20;2.60;;;;;;;;;;5094608;28;20935;-77
2021/08/27 03:01:37;;;;;;;3.27;2.40;;;;;;;;;;5094866;28;20523;-76
2021/08/27 03:04:10;;;;;;;4.10;2.83;;;;;;;;;;5095012;28;20572;-77
2021/08/27 03:06:40;;;;;;;4.50;2.17;;;;;;;;;;5094590;28;20479;-77
2021/08/27 03:09:09;;;;;;;11.67;2.80;;;;;;;;;;5095371;28;20466;-76
2021/08/27 03:11:39;;;;;;;11.40;2.70;;;;;;;;;;5094739;28;20920;-77
2021/08/27 03:14:09;;;;;;;4.60;2.50;;;;;;;;;;5094485;28;20931;-76
2021/08/27 03:16:39;;;;;;;4.20;1.93;;;;;;;;;;5094280;28;20503;-77
2021/08/27 03:19:08;;;;;;;9.07;2.80;;;;;;;;;;5093653;28;20439;-77
2021/08/27 03:21:38;;;;;;;5.70;2.23;;;;;;;;;;5094745;28;20435;-77
2021/08/27 03:24:08;;;;;;;9.00;2.60;;;;;;;;;;5094084;28;20828;-77
2021/08/27 03:26:36;;;;;;;5.97;2.47;;;;;;;;;;5094418;28;20472;-76
2021/08/27 03:29:05;;;;;;;9.57;3.17;;;;;;;;;;5094640;28;20454;-76
2021/08/27 03:31:32;;;;;;;3.90;2.77;;;;;;;;;;5094565;28;20442;-78
2021/08/27 03:34:01;;;;;;;4.03;2.33;;;;;;;;;;5094116;28;20448;-77
2021/08/27 03:36:29;;;;;;;4.40;2.80;;;;;;;;;;5093835;28;20449;-77
2021/08/27 03:38:57;;;;;;;7.73;3.57;;;;;;;;;;5094252;28;20441;-77
2021/08/27 03:41:26;;;;;;;6.20;2.80;;;;;;;;;;5094044;28;20440;-76
2021/08/27 03:43:54;;;;;;;7.83;3.00;;;;;;;;;;5093998;28;20435;-76
2021/08/27 03:46:22;;;;;;;4.90;3.07;;;;;;;;;;5094302;28;20478;-77
2021/08/27 03:48:49;;;;;;;6.43;3.97;;;;;;;;;;5093984;28;20439;-76
2021/08/27 03:51:17;;;;;;;9.63;3.23;;;;;;;;;;5093891;28;20451;-76
2021/08/27 03:53:46;;;;;;;11.40;4.23;;;;;;;;;;5093569;28;20439;-76
2021/08/27 03:56:14;;;;;;;7.73;4.03;;;;;;;;;;5093850;28;20448;-76
2021/08/27 03:58:41;;;;;;;8.90;4.50;;;;;;;;;;5094242;28;20440;-76
2021/08/27 04:01:09;;;;;;;11.50;5.03;;;;;;;;;;5093483;28;20447;-79
2021/08/27 04:03:36;;;;;;;15.47;5.10;;;;;;;;;;5094000;28;20781;-73
2021/08/27 04:06:05;;;;;;;9.87;5.93;;;;;;;;;;5093594;28;20476;-73
2021/08/27 04:08:34;;;;;;;13.37;5.90;;;;;;;;;;5093707;28;20516;-73
2021/08/27 04:11:02;;;;;;;9.57;6.03;;;;;;;;;;5093601;28;20438;-73
2021/08/27 04:13:29;;;;;;;11.63;6.80;;;;;;;;;;5093605;28;20443;-73
2021/08/27 04:15:56;;;;;;;12.30;6.87;;;;;;;;;;5094284;28;20443;-73
2021/08/27 04:18:23;;;;;;;16.50;8.10;;;;;;;;;;5093718;28;20445;-73
2021/08/27 04:20:51;;;;;;;17.87;8.30;;;;;;;;;;5093763;28;20451;-71
2021/08/27 04:23:18;;;;;;;12.73;7.57;;;;;;;;;;5093158;28;20477;-74
2021/08/27 04:25:46;;;;;;;19.10;8.00;;;;;;;;;;5093109;28;20479;-74
2021/08/27 04:28:13;;;;;;;14.33;8.13;;;;;;;;;;5093934;28;20431;-75
2021/08/27 04:30:41;;;;;;;9.97;7.17;;;;;;;;;;5096147;28;20454;-73
2021/08/27 04:33:08;;;;;;;10.30;6.50;;;;;;;;;;5097464;28;20458;-75
2021/08/27 04:35:35;;;;;;;20.27;8.00;;;;;;;;;;5097853;28;20446;-74
2021/08/27 04:38:02;;;;;;;13.30;7.60;;;;;;;;;;5090027;28;20438;-74
2021/08/27 04:40:30;;;;;;;8.97;6.87;;;;;;;;;;5075712;28;20443;-75
2021/08/27 04:42:59;;;;;;;12.07;6.80;;;;;;;;;;5076377;28;20443;-74
2021/08/27 04:45:26;;;;;;;12.50;6.30;;;;;;;;;;5076405;28;20567;-74
2021/08/27 04:47:53;;;;;;;13.70;6.03;;;;;;;;;;5076035;28;20440;-74
2021/08/27 04:50:21;;;;;;;9.20;5.40;;;;;;;;;;5075821;28;20519;-74
2021/08/27 04:52:48;;;;;;;10.47;6.00;;;;;;;;;;5075486;28;20536;-74
2021/08/27 04:55:15;;;;;;;10.13;5.17;;;;;;;;;;5075251;28;20436;-75
2021/08/27 04:57:42;;;;;;;9.73;5.43;;;;;;;;;;5076083;28;20759;-75
2021/08/27 05:00:12;;;;;;;11.37;5.23;;;;;;;;;;5075842;28;20443;-74
2021/08/27 05:02:39;;;;;;;11.77;5.33;;;;;;;;;;5075544;28;20450;-74
2021/08/27 05:05:07;;;;;;;8.03;5.30;;;;;;;;;;5075939;28;20436;-74
2021/08/27 05:07:35;;;;;;;9.63;4.90;;;;;;;;;;5075884;28;20789;-74
2021/08/27 05:10:02;;;;;;;10.33;4.43;;;;;;;;;;5076126;28;20450;-75
2021/08/27 05:12:29;;;;;;;11.90;5.67;;;;;;;;;;5076219;28;20955;-76
2021/08/27 05:14:57;;;;;;;8.00;4.47;;;;;;;;;;5076159;28;20440;-74
2021/08/27 05:17:25;;;;;;;10.07;3.97;;;;;;;;;;5075864;28;20534;-74
2021/08/27 05:19:53;;;;;;;5.10;3.90;;;;;;;;;;5076296;28;20448;-73
2021/08/27 05:22:20;;;;;;;8.00;4.17;;;;;;;;;;5075243;28;20460;-74
2021/08/27 05:24:47;;;;;;;8.03;5.43;;;;;;;;;;5074051;28;20424;-74
2021/08/27 05:27:14;;;;;;;5.57;3.33;;;;;;;;;;5073550;28;20477;-74
2021/08/27 05:29:41;;;;;;;8.73;4.00;;;;;;;;;;5074162;28;20451;-74
2021/08/27 05:32:09;;;;;;;14.57;4.53;;;;;;;;;;5074589;28;20451;-73
2021/08/27 05:34:38;;;;;;;7.80;3.40;;;;;;;;;;5074886;28;20520;-74
2021/08/27 05:37:05;;;;;;;11.13;3.90;;;;;;;;;;5074864;28;20444;-73
2021/08/27 05:39:32;;;;;;;7.03;3.77;;;;;;;;;;5090003;28;20447;-72
2021/08/27 05:42:01;;;;;;;5.37;3.77;;;;;;;;;;5093999;28;20439;-72
2021/08/27 05:44:28;;;;;;;8.30;3.90;;;;;;;;;;5094446;28;20440;-72
2021/08/27 05:46:56;;;;;;;5.53;3.50;;;;;;;;;;5094975;28;20482;-72
2021/08/27 05:49:23;;;;;;;4.90;3.67;;;;;;;;;;5095099;28;20522;-72
2021/08/27 05:51:52;;;;;;;8.30;3.50;;;;;;;;;;5094770;28;20443;-72
2021/08/27 05:54:19;;;;;;;7.20;3.90;;;;;;;;;;5094184;28;20920;-72
2021/08/27 05:56:46;;;;;;;10.80;3.90;;;;;;;;;;5094337;28;20955;-73
2021/08/27 05:59:14;;;;;;;6.23;3.10;;;;;;;;;;5094482;28;20531;-73
2021/08/27 06:01:41;;;;;;;9.10;3.00;;;;;;;;;;5094752;28;20439;-73
2021/08/27 06:04:08;;;;;;;9.20;3.27;;;;;;;;;;5095249;28;20454;-73
2021/08/27 06:06:35;;;;;;;5.40;2.90;;;;;;;;;;5094131;28;20479;-73
2021/08/27 06:09:05;;;;;;;5.20;3.40;;;;;;;;;;5086546;28;20445;-73
2021/08/27 06:11:35;;;;;;;6.43;3.23;;;;;;;;;;5074076;28;20458;-73
2021/08/27 06:14:03;;;;;;;9.47;3.40;;;;;;;;;;5074451;28;20495;-73
2021/08/27 06:16:30;;;;;;;4.67;3.40;;;;;;;;;;5074063;28;20441;-73
2021/08/27 06:18:57;;;;;;;12.77;3.50;;;;;;;;;;5073948;28;20456;-73
2021/08/27 06:21:24;;;;;;;6.03;3.10;;;;;;;;;;5074290;28;20452;-73
2021/08/27 06:23:53;;;;;;;4.80;2.27;;;;;;;;;;5036510;28;1097849;-73
2021/08/27 06:26:22;;;;;;;6.50;2.90;;;;;;;;;;5073804;28;20632;-73
2021/08/27 06:28:49;;;;;;;10.50;2.93;;;;;;;;;;5073806;28;20480;-73
2021/08/27 06:31:16;;;;;;;7.90;3.07;;;;;;;;;;5074408;28;20824;-73
2021/08/27 06:33:43;;;;;;;5.67;3.50;;;;;;;;;;5074893;28;20448;-73
2021/08/27 06:36:11;;;;;;;7.00;2.97;;;;;;;;;;5074759;28;20455;-73
2021/08/27 06:38:38;;;;;;;7.67;2.77;;;;;;;;;;5075050;28;20433;-73
2021/08/27 06:41:06;;;;;;;7.37;3.27;;;;;;;;;;5073350;28;20448;-73
2021/08/27 06:43:37;;;;;;;9.53;3.60;;;;;;;;;;5074364;28;20938;-73
2021/08/27 06:46:05;;;;;;;10.57;4.43;;;;;;;;;;5074577;28;20491;-73
2021/08/27 06:48:33;;;;;;;5.60;2.63;;;;;;;;;;5074894;28;20494;-73
2021/08/27 06:51:00;;;;;;;6.97;2.80;;;;;;;;;;5074583;28;20532;-73
2021/08/27 06:53:27;;;;;;;6.13;3.10;;;;;;;;;;5073857;28;20448;-73
2021/08/27 06:55:54;;;;;;;8.60;2.87;;;;;;;;;;5073985;28;20444;-73
2021/08/27 06:58:22;;;;;;;7.33;3.43;;;;;;;;;;5074556;28;20440;-73
2021/08/27 07:00:50;;;;;;;4.53;2.67;;;;;;;;;;5074657;28;20540;-73
2021/08/27 07:03:18;;;;;;;6.20;2.90;;;;;;;;;;5074140;28;20451;-73
2021/08/27 07:05:45;;;;;;;8.27;2.87;;;;;;;;;;5074061;28;20937;-74
2021/08/27 07:08:12;;;;;;;9.40;3.50;;;;;;;;;;5073946;28;20451;-73
2021/08/27 07:10:39;;;;;;;7.17;2.93;;;;;;;;;;5072642;28;20446;-73
2021/08/27 07:13:06;;;;;;;5.00;2.63;;;;;;;;;;5073949;28;20452;-73
2021/08/27 07:15:34;;;;;;;3.60;3.13;;;;;;;;;;5073684;28;20436;-73
2021/08/27 07:18:03;;;;;;;4.10;2.83;;;;;;;;;;5074676;28;20463;-73
2021/08/27 07:20:30;;;;;;;9.20;2.80;;;;;;;;;;5073503;28;20437;-73
2021/08/27 07:22:57;;;;;;;4.93;2.70;;;;;;;;;;5073957;28;20472;-73
2021/08/27 07:25:25;;;;;;;3.43;2.53;;;;;;;;;;5074226;28;20522;-73
2021/08/27 07:27:52;;;;;;;4.13;2.50;;;;;;;;;;5073388;28;21061;-73
2021/08/27 07:30:19;;;;;;;9.67;3.00;;;;;;;;;;5074022;28;20447;-73
2021/08/27 07:32:46;;;;;;;5.53;2.70;;;;;;;;;;5073767;28;20785;-73
2021/08/27 07:35:15;;;;;;;4.60;2.50;;;;;;;;;;5086792;28;20528;-73
2021/08/27 07:37:42;;;;;;;6.50;2.20;;;;;;;;;;5093751;28;20530;-73
2021/08/27 07:40:13;;;;;;;3.40;2.33;;;;;;;;;;5093907;28;20932;-73
2021/08/27 07:42:40;;;;;;;5.63;2.87;;;;;;;;;;5093588;28;20444;-72
2021/08/27 07:45:08;;;;;;;9.27;2.60;;;;;;;;;;5092368;28;20443;-72
2021/08/27 07:47:35;;;;;;;4.67;2.00;;;;;;;;;;5092450;28;20646;-72
2021/08/27 07:50:03;;;;;;;9.50;2.43;;;;;;;;;;5093727;28;20447;-73
2021/08/27 07:52:31;;;;;;;4.43;2.33;;;;;;;;;;5094119;28;20458;-73
2021/08/27 07:54:58;;;;;;;4.50;2.33;;;;;;;;;;5093265;28;20960;-73
2021/08/27 07:57:26;;;;;;;5.67;2.53;;;;;;;;;;5093496;28;20960;-72
2021/08/27 07:59:53;;;;;;;3.00;2.30;;;;;;;;;;5093379;28;20441;-73
2021/08/27 08:02:20;;;;;;;3.40;2.70;;;;;;;;;;5093242;28;20455;-73
2021/08/27 08:04:47;;;;;;;6.37;4.27;;;;;;;;;;5079451;28;20447;-72
2021/08/27 08:07:14;;;;;;;8.60;3.20;;;;;;;;;;5073088;28;20799;-73
2021/08/27 08:09:43;;;;;;;10.63;3.80;;;;;;;;;;5073089;28;20447;-73
2021/08/27 08:12:10;;;;;;;7.83;2.90;;;;;;;;;;5073162;28;20441;-73
2021/08/27 08:14:37;;;;;;;7.63;2.50;;;;;;;;;;5073163;28;20900;-71
2021/08/27 08:17:05;;;;;;;3.83;3.30;;;;;;;;;;5073091;28;20954;-73
2021/08/27 08:19:32;;;;;;;4.17;2.87;;;;;;;;;;5073284;28;20456;-73
2021/08/27 08:21:59;;;;;;;5.37;2.70;;;;;;;;;;5072779;28;20874;-73
2021/08/27 08:24:26;;;;;;;6.33;3.17;;;;;;;;;;5073059;28;20444;-73
2021/08/27 08:26:55;;;;;;;4.57;3.13;;;;;;;;;;5072797;28;20512;-73
2021/08/27 08:29:22;;;;;;;4.13;2.07;;;;;;;;;;5073301;28;20483;-73
2021/08/27 08:31:51;;;;;;;3.20;2.40;;;;;;;;;;5072758;28;20449;-72
2021/08/27 08:34:18;;;;;;;8.03;2.27;;;;;;;;;;5073526;28;20518;-73
2021/08/27 08:36:46;;;;;;;7.73;2.83;;;;;;;;;;5071287;28;20459;-72
2021/08/27 08:39:13;;;;;;;5.10;2.77;;;;;;;;;;5073021;28;20441;-73
2021/08/27 08:41:40;;;;;;;4.73;2.40;;;;;;;;;;5073187;28;20442;-73
2021/08/27 08:44:09;;;;;;;7.07;2.20;;;;;;;;;;5073686;28;20470;-73
2021/08/27 08:46:36;;;;;;;10.43;2.43;;;;;;;;;;5072828;28;21007;-73
2021/08/27 08:49:05;;;;;;;5.10;2.67;;;;;;;;;;5073380;28;20443;-74
2021/08/27 08:51:33;;;;;;;4.37;2.33;;;;;;;;;;5073153;28;20448;-73
2021/08/27 08:54:00;;;;;;;6.83;2.63;;;;;;;;;;5072693;28;20440;-74
2021/08/27 08:56:28;;;;;;;3.00;1.80;;;;;;;;;;5072958;28;20446;-74
2021/08/27 08:58:58;;;;;;;8.47;2.80;;;;;;;;;;5072831;28;20480;-72
2021/08/27 09:01:28;;;;;;;5.30;2.40;;;;;;;;;;5072734;28;20416;-73
2021/08/27 09:03:55;;;;;;;3.47;2.17;;;;;;;;;;5072424;28;20449;-73
2021/08/27 09:06:22;;;;;;;5.97;3.00;;;;;;;;;;5070751;28;20452;-73
2021/08/27 09:08:51;;;;;;;10.47;2.30;;;;;;;;;;5072395;28;20446;-73
2021/08/27 09:11:20;;;;;;;7.10;3.30;;;;;;;;;;5072834;28;20440;-72
2021/08/27 09:13:48;;;;;;;6.03;2.50;;;;;;;;;;5072523;28;20524;-74
2021/08/27 09:16:15;;;;;;;3.63;2.50;;;;;;;;;;5074296;28;20444;-72
2021/08/27 09:18:45;;;;;;;4.90;2.70;;;;;;;;;;5076097;28;20958;-73
2021/08/27 09:21:32;;;;;;;7.50;1.93;;;;;;;;;;5076530;28;20433;-73
2021/08/27 09:24:15;;;;;;;4.27;2.30;;;;;;;;;;5076579;28;20476;-73
2021/08/27 09:26:44;;;;;;;3.87;2.20;;;;;;;;;;5075551;28;20480;-72
2021/08/27 09:29:13;;;;;;;7.20;2.37;;;;;;;;;;5076458;28;20436;-72
2021/08/27 09:31:42;;;;;;;4.17;2.40;;;;;;;;;;5076428;28;20476;-72
2021/08/27 09:34:10;;;;;;;4.03;2.10;;;;;;;;;;5076788;28;20476;-73
2021/08/27 09:36:37;;;;;;;2.83;2.00;;;;;;;;;;5073963;28;20942;-72
2021/08/27 09:39:07;;;;;;;5.37;1.90;;;;;;;;;;5075797;28;20445;-72
2021/08/27 09:41:34;;;;;;;3.80;2.20;;;;;;;;;;5075738;28;20474;-72
2021/08/27 09:44:02;;;;;;;4.63;2.30;;;;;;;;;;5075726;28;20494;-72
2021/08/27 09:46:29;;;;;;;6.47;2.13;;;;;;;;;;5074689;28;20443;-73
2021/08/27 09:48:57;;;;;;;5.53;2.70;;;;;;;;;;5074346;28;20510;-72
2021/08/27 09:51:39;;;;;;;4.60;2.17;;;;;;;;;;5076139;28;20441;-72
2021/08/27 09:54:07;;;;;;;2.23;1.60;;;;;;;;;;5075746;28;20417;-72
2021/08/27 09:56:44;;;;;;;4.97;2.00;;;;;;;;;;5075627;28;20441;-72
2021/08/27 09:59:11;;;;;;;4.17;1.80;;;;;;;;;;5075341;28;20986;-72
2021/08/27 10:01:46;;;;;;;4.20;1.97;;;;;;;;;;5075289;28;20452;-72
2021/08/27 10:04:13;;;;;;;2.50;1.80;;;;;;;;;;5076068;28;20473;-72
2021/08/27 10:06:42;;;;;;;9.23;3.17;;;;;;;;;;5073004;28;20441;-72
2021/08/27 10:09:09;;;;;;;4.97;2.30;;;;;;;;;;5074901;28;20566;-73
2021/08/27 10:11:36;;;;;;;4.93;2.10;;;;;;;;;;5075360;28;20445;-72
2021/08/27 10:14:05;;;;;;;4.33;2.20;;;;;;;;;;5075221;28;20765;-73
2021/08/27 10:16:33;;;;;;;4.50;3.00;;;;;;;;;;5074974;28;20532;-72
2021/08/27 10:19:01;;;;;;;3.80;2.00;;;;;;;;;;5074893;28;20462;-72
2021/08/27 10:21:30;;;;;;;2.40;1.80;;;;;;;;;;5074824;28;20445;-72
2021/08/27 10:23:58;;;;;;;2.47;1.90;;;;;;;;;;5074777;28;20475;-73
2021/08/27 10:26:26;;;;;;;3.23;2.07;;;;;;;;;;5074464;28;20532;-72
2021/08/27 10:28:54;;;;;;;4.90;2.13;;;;;;;;;;5074228;28;20483;-72
2021/08/27 10:31:40;;;;;;;5.07;2.33;;;;;;;;;;5075131;28;21053;-71
2021/08/27 10:34:07;;;;;;;6.83;2.70;;;;;;;;;;5074757;28;20535;-74
2021/08/27 10:36:44;;;;;;;5.20;2.30;;;;;;;;;;5073190;28;20445;-74
2021/08/27 10:39:32;;;;;;;8.53;2.50;;;;;;;;;;5074539;28;20444;-74
2021/08/27 10:41:59;;;;;;;4.07;3.17;;;;;;;;;;5074591;28;20431;-74
2021/08/27 10:44:41;;;;;;;6.77;2.70;;;;;;;;;;5075183;28;20478;-74
2021/08/27 10:47:09;;;;;;;5.33;2.83;;;;;;;;;;5074012;28;20439;-74
2021/08/27 10:49:54;;;;;;;6.10;2.80;;;;;;;;;;5074166;28;20449;-73
2021/08/27 10:52:32;;;;;;;7.60;3.10;;;;;;;;;;5074927;28;20437;-74
2021/08/27 10:55:21;;;;;;;5.50;3.07;;;;;;;;;;5074830;28;20525;-73
2021/08/27 10:58:05;;;;;;;8.87;3.23;;;;;;;;;;5068323;28;20464;-73
2021/08/27 11:00:39;;;;;;;3.67;2.53;;;;;;;;;;5074749;28;20421;-73
2021/08/27 11:03:07;;;;;;;7.90;2.80;;;;;;;;;;5074094;28;20514;-73
2021/08/27 11:05:35;;;;;;;9.37;2.77;;;;;;;;;;5072884;28;20451;-73
2021/08/27 11:08:03;;;;;;;5.47;2.90;;;;;;;;;;5073655;28;20483;-73
2021/08/27 11:10:31;;;;;;;5.40;2.70;;;;;;;;;;5074226;28;20524;-73
2021/08/27 11:13:02;;;;;;;5.37;3.07;;;;;;;;;;5074296;28;20798;-73
2021/08/27 11:15:30;;;;;;;4.70;3.10;;;;;;;;;;5074057;28;20435;-73
2021/08/27 11:18:16;;;;;;;5.90;3.30;;;;;;;;;;5074084;28;20470;-73
2021/08/27 11:20:45;;;;;;;4.33;2.63;;;;;;;;;;5073923;28;20470;-73
2021/08/27 11:23:13;;;;;;;5.40;3.70;;;;;;;;;;5074190;28;20522;-73
2021/08/27 11:25:41;;;;;;;6.93;3.20;;;;;;;;;;5073678;28;20528;-73
2021/08/27 11:28:10;;;;;;;3.43;2.50;;;;;;;;;;5073357;28;20472;-73
2021/08/27 11:30:37;;;;;;;7.63;2.33;;;;;;;;;;5074480;28;20444;-73
2021/08/27 11:33:05;;;;;;;3.90;2.60;;;;;;;;;;5074070;28;20756;-73
2021/08/27 11:35:33;;;;;;;4.97;2.77;;;;;;;;;;5073526;28;20436;-73
2021/08/27 11:38:05;;;;;;;2.93;2.67;;;;;;;;;;5071329;28;20449;-73
2021/08/27 11:40:33;;;;;;;2.30;1.70;;;;;;;;;;5074395;28;20418;-72
2021/08/27 11:43:00;;;;;;;6.40;3.97;;;;;;;;;;5074030;28;20528;-73
2021/08/27 11:45:27;;;;;;;2.80;2.10;;;;;;;;;;5073658;28;20492;-72
2021/08/27 11:47:56;;;;;;;4.63;2.93;;;;;;;;;;5072361;28;20490;-77
2021/08/27 11:50:23;;;;;;;3.00;2.40;;;;;;;;;;5072277;28;20446;-76
2021/08/27 11:52:52;;;;;;;5.33;2.80;;;;;;;;;;5073706;28;20443;-77
2021/08/27 11:55:20;;;;;;;3.90;2.97;;;;;;;;;;5073509;28;20436;-76
2021/08/27 11:57:51;;;;;;;5.50;2.47;;;;;;;;;;5073367;28;20451;-77
2021/08/27 12:00:20;;;;;;;4.33;2.30;;;;;;;;;;5073836;28;20451;-77
2021/08/27 12:02:52;;;;;;;5.53;2.90;;;;;;;;;;5073087;28;20476;-77
2021/08/27 12:05:19;;;;;;;3.20;2.30;;;;;;;;;;5073498;28;20429;-76
2021/08/27 12:07:50;;;;;;;1.90;1.70;;;;;;;;;;5071445;28;20487;-75
2021/08/27 12:10:17;;;;;;;3.27;1.90;;;;;;;;;;5073278;28;20441;-75
2021/08/27 12:12:47;;;;;;;3.97;2.10;;;;;;;;;;5073432;28;20436;-74
2021/08/27 12:15:15;;;;;;;3.80;1.97;;;;;;;;;;5073291;28;20439;-74
2021/08/27 12:17:52;;;;;;;5.43;2.50;;;;;;;;;;5073130;28;20531;-73
2021/08/27 12:20:19;;;;;;;4.03;1.97;;;;;;;;;;5073099;28;20432;-74
2021/08/27 12:22:48;;;;;;;3.80;2.13;;;;;;;;;;5073164;28;20487;-74
2021/08/27 12:25:24;;;;;;;3.70;2.17;;;;;;;;;;5073523;28;20479;-75
2021/08/27 12:27:53;;;;;;;4.80;2.40;;;;;;;;;;5072801;28;20465;-74
2021/08/27 12:30:21;;;;;;;11.23;3.17;;;;;;;;;;5073269;28;20430;-75
2021/08/27 12:32:48;;;;;;;4.40;2.80;;;;;;;;;;5073042;28;20455;-74
2021/08/27 12:35:16;;;;;;;2.60;2.10;;;;;;;;;;5073432;28;20436;-74
2021/08/27 12:37:44;;;;;;;4.23;2.70;;;;;;;;;;5071504;28;20802;-77
2021/08/27 12:40:13;;;;;;;6.60;2.33;;;;;;;;;;5072297;28;20527;-76
2021/08/27 12:42:40;;;;;;;2.67;2.00;;;;;;;;;;5072686;28;20441;-72
2021/08/27 12:45:11;;;;;;;6.77;2.27;;;;;;;;;;5073211;28;20441;-72
2021/08/27 12:47:39;;;;;;;1.70;1.60;;;;;;;;;;5073176;28;20557;-73
2021/08/27 12:50:08;;;;;;;5.13;2.07;;;;;;;;;;5073076;28;20873;-73
2021/08/27 12:52:36;;;;;;;3.57;2.03;;;;;;;;;;5076805;28;20457;-73
2021/08/27 12:55:03;;;;;;;3.30;2.30;;;;;;;;;;5077085;28;20486;-73
2021/08/27 12:57:31;;;;;;;2.73;2.23;;;;;;;;;;5076810;28;20459;-71
2021/08/27 12:59:59;;;;;;;4.53;2.30;;;;;;;;;;5076745;28;20865;-72
2021/08/27 13:02:28;;;;;;;2.40;2.07;;;;;;;;;;5076087;28;20500;-72
2021/08/27 13:04:55;;;;;;;3.03;2.20;;;;;;;;;;5076115;28;20445;-72
2021/08/27 13:07:23;;;;;;;3.73;2.40;;;;;;;;;;5079598;28;20470;-71
2021/08/27 13:09:53;;;;;;;2.00;1.80;;;;;;;;;;5096319;28;20483;-71
2021/08/27 13:12:30;;;;;;;2.50;2.00;;;;;;;;;;5097177;28;20847;-71
2021/08/27 13:14:58;;;;;;;4.00;3.60;;;;;;;;;;5096193;28;20788;-71
2021/08/27 13:17:25;;;;;;;2.97;1.87;;;;;;;;;;5096423;28;20564;-72
2021/08/27 13:19:56;;;;;;;3.13;2.17;;;;;;;;;;5096121;28;20481;-72
2021/08/27 13:22:24;;;;;;;3.10;1.80;;;;;;;;;;5096705;28;20976;-71
2021/08/27 13:24:55;;;;;;;3.37;1.57;;;;;;;;;;5096467;28;20438;-71
2021/08/27 13:27:23;;;;;;;2.93;1.50;;;;;;;;;;5095937;28;20533;-71
2021/08/27 13:29:50;;;;;;;2.30;1.53;;;;;;;;;;5096001;28;20982;-72
2021/08/27 13:32:22;;;;;;;1.97;1.73;;;;;;;;;;5096177;28;20437;-72
2021/08/27 13:34:49;;;;;;;3.53;1.77;;;;;;;;;;5096427;28;20496;-69
2021/08/27 13:37:18;;;;;;;4.40;1.73;;;;;;;;;;5090496;28;20444;-71
2021/08/27 13:39:46;;;;;;;2.07;1.87;;;;;;;;;;5075743;28;20486;-71
2021/08/27 13:42:13;;;;;;;2.33;1.77;;;;;;;;;;5076878;28;20510;-71
2021/08/27 13:44:40;;;;;;;4.23;2.10;;;;;;;;;;5076411;28;20452;-74
2021/08/27 13:47:08;;;;;;;2.03;1.53;;;;;;;;;;5075760;28;20533;-70
2021/08/27 13:49:35;;;;;;;3.50;1.60;;;;;;;;;;5075578;28;20560;-70
2021/08/27 13:52:02;;;;;;;1.50;1.30;;;;;;;;;;5075156;28;20447;-69
2021/08/27 13:54:31;;;;;;;3.47;2.00;;;;;;;;;;5075472;28;20947;-70
2021/08/27 13:56:58;;;;;;;2.27;1.90;;;;;;;;;;5075832;28;20441;-69
2021/08/27 13:59:25;;;;;;;2.33;1.60;;;;;;;;;;5074955;28;20453;-70
2021/08/27 14:01:53;;;;;;;3.67;1.97;;;;;;;;;;5075534;28;20441;-70
2021/08/27 14:04:20;;;;;;;2.80;2.00;;;;;;;;;;5075691;28;20956;-70
2021/08/27 14:06:47;;;;;;;5.70;2.50;;;;;;;;;;5075332;28;20442;-70
2021/08/27 14:09:15;;;;;;;3.90;1.93;;;;;;;;;;5073964;28;20514;-70
2021/08/27 14:11:44;;;;;;;3.37;2.50;;;;;;;;;;5075315;28;20442;-70
2021/08/27 14:14:11;;;;;;;3.80;2.07;;;;;;;;;;5075248;28;20432;-69
2021/08/27 14:16:38;;;;;;;1.97;1.87;;;;;;;;;;5074890;28;20981;-71
2021/08/27 14:19:06;;;;;;;2.23;2.00;;;;;;;;;;5074897;28;20458;-69
2021/08/27 14:21:33;;;;;;;4.57;1.80;;;;;;;;;;5075238;28;20776;-69
2021/08/27 14:24:00;;;;;;;3.13;1.67;;;;;;;;;;5074864;28;20998;-70
2021/08/27 14:26:27;;;;;;;2.50;1.70;;;;;;;;;;5075166;28;20542;-69
2021/08/27 14:28:56;;;;;;;5.03;2.90;;;;;;;;;;5074273;28;20574;-69
2021/08/27 14:31:25;;;;;;;4.70;3.03;;;;;;;;;;5075105;28;20522;-69
2021/08/27 14:33:58;;;;;;;6.10;3.20;;;;;;;;;;5074879;28;20465;-70
2021/08/27 14:36:25;;;;;;;3.57;2.80;;;;;;;;;;5074929;28;20434;-70
2021/08/27 14:38:52;;;;;;;3.63;2.17;;;;;;;;;;5072776;28;20456;-70
2021/08/27 14:41:19;;;;;;;3.00;2.30;;;;;;;;;;5074400;28;20809;-70
2021/08/27 14:43:47;;;;;;;4.10;1.80;;;;;;;;;;5074557;28;20474;-70
2021/08/27 14:46:15;;;;;;;2.63;2.23;;;;;;;;;;5074530;28;20931;-69
2021/08/27 14:48:42;;;;;;;6.77;2.70;;;;;;;;;;5074349;28;20480;-70